Time,TemperatureF,DewpointF,PressureIn,WindDirection,WindDirectionDegrees,WindSpeedMPH,WindSpeedGustMPH,Humidity,HourlyPrecipIn,Conditions,Clouds,dailyrainin,SoftwareType,DateUTC
2013-04-07 00:06:00,64.5,61.0,30.10,North,350,4.0,5.0,87,0.00,,,0.00,weatherlink.com 1.10,2013-04-07 04:06:00,
2013-04-07 00:36:00,64.1,60.0,30.10,North,350,1.0,4.0,87,0.00,,,0.00,weatherlink.com 1.10,2013-04-07 04:36:00,
2013-04-07 01:36:00,63.8,61.0,30.08,NNE,22,3.0,6.0,89,0.00,,,0.00,weatherlink.com 1.10,2013-04-07 05:36:00,
2013-04-07 01:51:00,63.6,60.0,30.08,NNE,22,1.0,4.0,88,0.00,,,0.00,weatherlink.com 1.10,2013-04-07 05:51:00,
2013-04-07 04:03:00,63.4,61.0,30.04,NE,37,3.0,7.0,90,0.00,,,0.00,weatherlink.com 1.10,2013-04-07 08:03:00,
2013-04-07 04:39:00,62.8,60.0,30.05,NE,37,4.0,6.0,90,0.00,,,0.00,weatherlink.com 1.10,2013-04-07 08:39:00,
2013-04-07 04:52:00,62.8,60.0,30.05,NE,37,2.0,5.0,91,0.00,,,0.00,weatherlink.com 1.10,2013-04-07 08:52:00,
2013-04-07 05:07:00,62.6,60.0,30.05,NE,37,4.0,6.0,91,0.00,,,0.00,weatherlink.com 1.10,2013-04-07 09:07:00,
2013-04-07 05:22:00,62.7,60.0,30.05,NE,37,5.0,7.0,91,0.00,,,0.00,weatherlink.com 1.10,2013-04-07 09:22:00,
2013-04-07 05:37:00,62.8,61.0,30.04,NE,41,5.0,8.0,92,0.00,,,0.00,weatherlink.com 1.10,2013-04-07 09:37:00,
2013-04-07 05:52:00,62.9,61.0,30.05,NE,40,7.0,9.0,92,0.00,,,0.00,weatherlink.com 1.10,2013-04-07 09:52:00,
2013-04-07 06:07:00,63.0,61.0,30.05,NNE,31,5.0,8.0,92,0.00,,,0.00,weatherlink.com 1.10,2013-04-07 10:07:00,
2013-04-07 06:22:00,63.1,61.0,30.05,NNE,30,6.0,8.0,92,0.00,,,0.00,weatherlink.com 1.10,2013-04-07 10:22:00,
2013-04-07 06:37:00,63.0,61.0,30.06,NNE,29,5.0,8.0,92,0.00,,,0.00,weatherlink.com 1.10,2013-04-07 10:37:00,
2013-04-07 06:52:00,63.1,61.0,30.07,NNE,31,6.0,9.0,92,0.00,,,0.00,weatherlink.com 1.10,2013-04-07 10:52:00,
2013-04-07 07:07:00,63.0,61.0,30.07,NE,41,3.0,7.0,92,0.00,,,0.00,weatherlink.com 1.10,2013-04-07 11:07:00,
2013-04-07 07:22:00,62.8,61.0,30.08,NE,43,4.0,6.0,92,0.00,,,0.00,weatherlink.com 1.10,2013-04-07 11:22:00,
2013-04-07 07:37:00,63.0,61.0,30.08,NE,39,4.0,7.0,93,0.00,,,0.00,weatherlink.com 1.10,2013-04-07 11:37:00,
2013-04-07 08:07:00,63.8,62.0,30.09,NE,42,4.0,6.0,93,0.00,,,0.00,weatherlink.com 1.10,2013-04-07 12:07:00,
2013-04-07 08:22:00,64.5,63.0,30.09,NE,51,4.0,8.0,93,0.00,,,0.00,weatherlink.com 1.10,2013-04-07 12:22:00,
2013-04-07 08:37:00,65.0,63.0,30.10,ENE,61,6.0,7.0,93,0.00,,,0.00,weatherlink.com 1.10,2013-04-07 12:37:00,
2013-04-07 08:52:00,65.8,64.0,30.11,NE,53,5.0,9.0,92,0.00,,,0.00,weatherlink.com 1.10,2013-04-07 12:52:00,
2013-04-07 09:07:00,66.7,64.0,30.12,NE,53,7.0,9.0,92,0.00,,,0.00,weatherlink.com 1.10,2013-04-07 13:07:00,
2013-04-07 09:22:00,68.0,65.0,30.12,NE,49,6.0,13.0,91,0.00,,,0.00,weatherlink.com 1.10,2013-04-07 13:22:00,
2013-04-07 09:37:00,69.3,66.0,30.12,ENE,60,7.0,11.0,90,0.00,,,0.00,weatherlink.com 1.10,2013-04-07 13:37:00,
2013-04-07 09:53:00,70.8,67.0,30.13,East,94,5.0,12.0,87,0.00,,,0.00,weatherlink.com 1.10,2013-04-07 13:53:00,
2013-04-07 10:08:00,72.0,67.0,30.13,NE,44,10.0,13.0,85,0.00,,,0.00,weatherlink.com 1.10,2013-04-07 14:08:00,
2013-04-07 10:23:00,73.4,68.0,30.13,NE,52,9.0,14.0,83,0.00,,,0.00,weatherlink.com 1.10,2013-04-07 14:23:00,
2013-04-07 10:38:00,74.5,68.0,30.13,East,79,7.0,13.0,80,0.00,,,0.00,weatherlink.com 1.10,2013-04-07 14:38:00,
2013-04-07 10:53:00,75.7,68.0,30.13,NE,53,9.0,16.0,76,0.00,,,0.00,weatherlink.com 1.10,2013-04-07 14:53:00,
2013-04-07 11:08:00,76.9,68.0,30.13,East,83,2.0,13.0,74,0.00,,,0.00,weatherlink.com 1.10,2013-04-07 15:08:00,
2013-04-07 11:23:00,77.8,68.0,30.13,East,90,12.0,17.0,71,0.00,,,0.00,weatherlink.com 1.10,2013-04-07 15:23:00,
2013-04-07 11:38:00,79.2,68.0,30.13,ENE,60,7.0,14.0,69,0.00,,,0.00,weatherlink.com 1.10,2013-04-07 15:38:00,
2013-04-07 11:53:00,80.2,68.0,30.13,ENE,63,8.0,14.0,66,0.00,,,0.00,weatherlink.com 1.10,2013-04-07 15:53:00,
2013-04-07 12:08:00,81.5,67.0,30.12,ENE,73,4.0,15.0,62,0.00,,,0.00,weatherlink.com 1.10,2013-04-07 16:08:00,
2013-04-07 12:24:00,82.7,67.0,30.12,ENE,59,4.0,12.0,59,0.00,,,0.00,weatherlink.com 1.10,2013-04-07 16:24:00,
2013-04-07 12:38:00,83.3,65.0,30.11,ESE,112,7.0,13.0,55,0.00,,,0.00,weatherlink.com 1.10,2013-04-07 16:38:00,
2013-04-07 12:53:00,83.9,64.0,30.11,NE,45,9.0,12.0,52,0.00,,,0.00,weatherlink.com 1.10,2013-04-07 16:53:00,
2013-04-07 13:23:00,83.2,64.0,30.10,ENE,68,0.0,10.0,52,0.00,,,0.00,weatherlink.com 1.10,2013-04-07 17:23:00,
2013-04-07 13:38:00,83.5,63.0,30.10,East,81,3.0,8.0,51,0.00,,,0.00,weatherlink.com 1.10,2013-04-07 17:38:00,
2013-04-07 13:54:00,84.7,63.0,30.09,East,79,5.0,9.0,49,0.00,,,0.00,weatherlink.com 1.10,2013-04-07 17:54:00,
2013-04-07 14:23:00,85.8,64.0,30.08,ENE,74,0.0,10.0,48,0.00,,,0.00,weatherlink.com 1.10,2013-04-07 18:23:00,
2013-04-07 14:39:00,83.2,63.0,30.08,West,259,13.0,17.0,51,0.00,,,0.00,weatherlink.com 1.10,2013-04-07 18:39:00,
2013-04-07 14:54:00,81.6,65.0,30.07,SW,228,8.0,12.0,58,0.00,,,0.00,weatherlink.com 1.10,2013-04-07 18:54:00,
2013-04-07 15:09:00,80.9,66.0,30.07,WSW,242,8.0,14.0,60,0.00,,,0.00,weatherlink.com 1.10,2013-04-07 19:09:00,
2013-04-07 15:54:00,81.0,63.0,30.06,WSW,245,10.0,14.0,54,0.00,,,0.00,weatherlink.com 1.10,2013-04-07 19:54:00,
2013-04-07 16:09:00,81.2,64.0,30.06,West,272,10.0,14.0,56,0.00,,,0.00,weatherlink.com 1.10,2013-04-07 20:09:00,
2013-04-07 16:24:00,81.0,65.0,30.06,WSW,251,11.0,14.0,58,0.00,,,0.00,weatherlink.com 1.10,2013-04-07 20:24:00,
2013-04-07 17:09:00,80.0,64.0,30.05,West,262,8.0,11.0,59,0.00,,,0.00,weatherlink.com 1.10,2013-04-07 21:09:00,
2013-04-07 17:39:00,80.0,65.0,30.05,West,272,6.0,8.0,61,0.00,,,0.00,weatherlink.com 1.10,2013-04-07 21:39:00,
2013-04-07 18:09:00,81.1,64.0,30.05,WNW,291,1.0,5.0,57,0.00,,,0.00,weatherlink.com 1.10,2013-04-07 22:09:00,
2013-04-07 18:24:00,81.4,64.0,30.05,WNW,301,1.0,5.0,56,0.00,,,0.00,weatherlink.com 1.10,2013-04-07 22:24:00,
2013-04-07 19:09:00,81.5,67.0,30.05,ESE,107,2.0,9.0,62,0.00,,,0.00,weatherlink.com 1.10,2013-04-07 23:09:00,
2013-04-07 19:39:00,79.0,66.0,30.06,SE,129,12.0,15.0,64,0.00,,,0.00,weatherlink.com 1.10,2013-04-07 23:39:00,
2013-04-07 20:09:00,77.1,66.0,30.07,SSE,148,9.0,12.0,69,0.00,,,0.00,weatherlink.com 1.10,2013-04-08 00:09:00,
2013-04-07 20:39:00,75.4,67.0,30.08,ESE,122,0.0,2.0,75,0.00,,,0.00,weatherlink.com 1.10,2013-04-08 00:39:00,
2013-04-07 20:54:00,74.6,67.0,30.08,ESE,122,0.0,0.0,76,0.00,,,0.00,weatherlink.com 1.10,2013-04-08 00:54:00,
2013-04-07 21:24:00,75.0,66.0,30.09,NE,54,9.0,16.0,74,0.00,,,0.00,weatherlink.com 1.10,2013-04-08 01:24:00,
2013-04-07 21:39:00,74.6,67.0,30.10,ESE,105,1.0,16.0,76,0.00,,,0.00,weatherlink.com 1.10,2013-04-08 01:39:00,
2013-04-07 21:54:00,73.9,67.0,30.11,SE,131,5.0,7.0,79,0.00,,,0.00,weatherlink.com 1.10,2013-04-08 01:54:00,
2013-04-07 22:09:00,72.5,67.0,30.11,SSE,158,5.0,12.0,83,0.00,,,0.00,weatherlink.com 1.10,2013-04-08 02:09:00,
2013-04-07 22:54:00,70.5,67.0,30.11,SSE,168,0.0,0.0,87,0.01,,,0.01,weatherlink.com 1.10,2013-04-08 02:54:00,
2013-04-07 23:09:00,70.5,67.0,30.11,SSE,168,0.0,0.0,87,0.01,,,0.01,weatherlink.com 1.10,2013-04-08 03:09:00,
2013-04-07 23:24:00,70.5,67.0,30.11,SSE,168,0.0,0.0,88,0.00,,,0.01,weatherlink.com 1.10,2013-04-08 03:24:00,
2013-04-07 23:39:00,70.7,67.0,30.11,East,85,3.0,5.0,88,0.00,,,0.01,weatherlink.com 1.10,2013-04-08 03:39:00,